Aérodrome :
LOGIN :

S'inscrire | Disclaimer

   EN    FR    IT 

 










Légende :    VFR   VFR Marginal   IFR   IFR Intensif   IFR Très Intensif
Visi : 
Plafond : 
>= 8 km
>= 3000ft
5 à 8 km
1000 à 3000 ft
1500m à 5 km
500 à 1000 ft
800 à 1500m
200 à 500 ft
< 800m
< 200 ft
Symboles :   Orages  Brouillard  Fortes neiges  Fortes précipitations  Vent > 20 kt
SIGMETs :   Divers  Orages  Givrage  Turbulence  Onde Orograph.  Cendres Volcan.






- Altitude de l'aérodrome : 195 ft


LFMY - Salon de Provence

DERNIER METAR :
  • 220300Z AUTO 10011KT 9999 OVC045 19/13 Q1018

METARs EXPIRÉS :
  • 220230Z AUTO 10011KT 9999 BKN047 OVC054 19/13 Q1018
  • 220200Z AUTO 10011KT 9999 OVC050 18/12 Q1018
  • 220130Z AUTO 09011KT 9999 OVC049 18/12 Q1018
  • 220100Z AUTO 10013KT 9999 BKN050 OVC150 18/12 Q1019
  • 220030Z AUTO 10012KT CAVOK 18/12 Q1018

TAF TAF LFMY
Valide du 21 à 15h jusqu'au 22 à 15h UTC


211400Z 2115/2215 11015G25KT CAVOK TX22/2213Z TN17/2203Z
TEMPO 2115/2118 13020G30KT



MET'MAP, la Météo Aéronautique d'un coup d'oeil ! - Copyright ORBIFLY Décembre 2007 - Disclaimer

ORBIFLY MET'MAP TEAM :

Programmation & Développement : Alexandra Zaïnal
Sur une idée originale de : Baudouin d'Aumeries
Assistance à la programmation : Marc-Olivier Méhu
Soutien technique & logistique : Manuel Goepfert

Contact : metmap@orbifly.com




SOURCES & CREDITS :

   NOAA